createdAt,value
2023-06-15T00:01:34.380Z,9.82
2023-06-15T00:04:04.049Z,9.97
2023-06-15T00:06:32.902Z,10.13
2023-06-15T00:09:02.271Z,10.33
2023-06-15T00:11:31.205Z,10.51
2023-06-15T00:14:00.224Z,10.65
2023-06-15T00:16:32.900Z,10.52
2023-06-15T00:19:03.608Z,10.39
2023-06-15T00:21:35.858Z,10.37
2023-06-15T00:24:04.947Z,10.56
2023-06-15T00:26:33.818Z,10.66
2023-06-15T00:29:02.936Z,10.68
2023-06-15T00:31:31.930Z,10.60
2023-06-15T00:34:01.056Z,10.57
2023-06-15T00:36:30.118Z,10.55
2023-06-15T00:39:00.305Z,10.54
2023-06-15T00:41:29.882Z,10.50
2023-06-15T00:43:58.720Z,10.63
2023-06-15T00:46:27.783Z,11.01
2023-06-15T00:48:56.753Z,11.32
2023-06-15T00:51:25.806Z,11.48
2023-06-15T00:53:54.927Z,11.75
2023-06-15T00:56:24.029Z,12.01
2023-06-15T00:58:53.386Z,12.25
2023-06-15T01:01:22.908Z,12.51
2023-06-15T01:03:52.980Z,12.70
2023-06-15T01:06:26.340Z,12.97
2023-06-15T01:09:03.388Z,12.85
2023-06-15T01:11:33.627Z,12.53
2023-06-15T01:14:04.723Z,12.25
2023-06-15T01:16:45.489Z,12.22
2023-06-15T01:19:44.628Z,12.22
2023-06-15T01:22:57.343Z,12.10
2023-06-15T01:25:45.121Z,11.99
2023-06-15T01:28:17.281Z,11.96
2023-06-15T01:30:50.193Z,11.95
2023-06-15T01:33:19.742Z,11.93
2023-06-15T01:35:48.861Z,11.94
2023-06-15T01:38:20.946Z,11.91
2023-06-15T01:40:52.595Z,11.81
2023-06-15T01:43:31.986Z,11.72
2023-06-15T01:46:02.035Z,11.64
2023-06-15T01:48:33.087Z,12.02
2023-06-15T01:51:04.085Z,13.09
2023-06-15T01:53:33.000Z,14.05
2023-06-15T01:56:02.623Z,14.78
2023-06-15T01:58:31.655Z,15.49
2023-06-15T02:01:01.627Z,16.58
2023-06-15T02:03:30.739Z,17.72
2023-06-15T02:05:59.864Z,18.58
2023-06-15T02:08:28.758Z,19.40
2023-06-15T02:10:57.641Z,20.04
2023-06-15T02:13:27.182Z,20.97
2023-06-15T02:15:56.883Z,22.02
2023-06-15T02:18:26.177Z,22.41
2023-06-15T02:20:55.008Z,21.77
2023-06-15T02:23:23.994Z,20.80
2023-06-15T02:25:53.076Z,19.20
2023-06-15T02:28:22.106Z,17.80
2023-06-15T02:30:51.092Z,18.87
2023-06-15T02:33:22.994Z,20.37
2023-06-15T02:35:51.909Z,21.47
2023-06-15T02:38:22.025Z,20.81
2023-06-15T02:40:52.133Z,19.31
2023-06-15T02:43:24.909Z,19.11
2023-06-15T02:45:53.799Z,20.33
2023-06-15T02:48:23.408Z,21.74
2023-06-15T02:50:53.434Z,23.19
2023-06-15T02:53:24.978Z,23.68
2023-06-15T02:56:06.268Z,21.62
2023-06-15T02:58:39.022Z,19.39
2023-06-15T03:01:23.522Z,17.52
2023-06-15T03:03:59.130Z,16.56
2023-06-15T03:06:28.335Z,16.65
2023-06-15T03:08:59.669Z,17.36
2023-06-15T03:11:32.183Z,19.25
2023-06-15T03:14:02.006Z,21.03
2023-06-15T03:16:41.361Z,22.12
2023-06-15T03:19:13.023Z,22.00
2023-06-15T03:21:43.334Z,22.95
2023-06-15T03:24:12.407Z,24.29
2023-06-15T03:26:45.238Z,26.02
2023-06-15T03:29:15.221Z,27.37
2023-06-15T03:31:45.723Z,27.81
2023-06-15T03:34:14.776Z,27.54
2023-06-15T03:36:45.392Z,27.33
2023-06-15T03:39:16.738Z,25.55
2023-06-15T03:41:45.894Z,22.71
2023-06-15T03:44:15.493Z,21.00
2023-06-15T03:46:45.925Z,19.78
2023-06-15T03:49:15.088Z,19.13
2023-06-15T03:51:45.104Z,20.15
2023-06-15T03:54:14.759Z,20.47
2023-06-15T03:56:43.774Z,20.06
2023-06-15T03:59:13.061Z,20.40
2023-06-15T04:01:42.494Z,21.13
2023-06-15T04:04:14.195Z,20.49
2023-06-15T04:06:48.130Z,19.32
2023-06-15T04:09:18.813Z,18.16
2023-06-15T04:11:48.209Z,17.22
2023-06-15T04:14:20.017Z,16.35
2023-06-15T04:16:49.740Z,15.99
2023-06-15T04:19:18.647Z,16.67
2023-06-15T04:21:49.402Z,17.62
2023-06-15T04:24:20.094Z,17.98
2023-06-15T04:26:49.270Z,17.86
2023-06-15T04:29:19.910Z,17.46
2023-06-15T04:31:56.707Z,16.99
2023-06-15T04:34:28.873Z,16.53
2023-06-15T04:36:57.994Z,16.54
2023-06-15T04:39:27.383Z,16.51
2023-06-15T04:42:01.529Z,16.65
2023-06-15T04:44:30.769Z,17.04
2023-06-15T04:47:00.040Z,17.46
2023-06-15T04:49:28.840Z,17.90
2023-06-15T04:51:57.864Z,18.22
2023-06-15T04:54:27.143Z,18.31
2023-06-15T04:56:56.053Z,18.58
2023-06-15T04:59:25.419Z,18.53
2023-06-15T05:01:55.580Z,18.26
2023-06-15T05:04:29.930Z,18.41
2023-06-15T05:06:59.252Z,18.63
2023-06-15T05:09:29.604Z,18.98
2023-06-15T05:11:59.852Z,21.24
2023-06-15T05:14:28.982Z,23.88
2023-06-15T05:16:58.075Z,25.90
2023-06-15T05:19:27.142Z,27.52
2023-06-15T05:22:01.415Z,28.32
2023-06-15T05:24:32.599Z,29.15
2023-06-15T05:27:02.848Z,29.47
2023-06-15T05:29:32.988Z,28.20
2023-06-15T05:32:04.893Z,27.14
2023-06-15T05:34:37.029Z,27.00
2023-06-15T05:37:06.742Z,26.34
2023-06-15T05:39:41.458Z,25.26
2023-06-15T05:42:11.888Z,23.82
2023-06-15T05:44:45.259Z,22.00
2023-06-15T05:47:14.149Z,21.04
2023-06-15T05:49:44.304Z,21.66
2023-06-15T05:52:16.525Z,24.11
2023-06-15T05:54:46.943Z,26.62
2023-06-15T05:57:16.711Z,28.61
2023-06-15T05:59:49.450Z,29.50
2023-06-15T06:02:20.517Z,30.50
2023-06-15T06:04:49.580Z,29.16
2023-06-15T06:07:18.778Z,26.72
2023-06-15T06:09:47.677Z,25.47
2023-06-15T06:12:17.433Z,24.37
2023-06-15T06:14:46.861Z,25.09
2023-06-15T06:17:37.229Z,27.04
2023-06-15T06:20:06.341Z,26.53
2023-06-15T06:22:35.305Z,25.78
2023-06-15T06:25:05.262Z,23.77
2023-06-15T06:27:34.485Z,22.04
2023-06-15T06:30:03.369Z,22.21
2023-06-15T06:32:33.493Z,23.17
2023-06-15T06:35:02.545Z,22.41
2023-06-15T06:37:32.186Z,21.40
2023-06-15T06:40:01.565Z,20.60
2023-06-15T06:42:32.313Z,20.00
2023-06-15T06:45:03.205Z,19.76
2023-06-15T06:47:35.330Z,20.06
2023-06-15T06:50:06.934Z,20.73
2023-06-15T06:52:35.842Z,21.07
2023-06-15T06:55:06.271Z,20.95
2023-06-15T06:57:35.212Z,20.72
2023-06-15T07:00:05.354Z,20.27
2023-06-15T07:02:37.316Z,19.62
2023-06-15T07:05:07.091Z,19.20
2023-06-15T07:07:36.031Z,18.89
2023-06-15T07:10:05.700Z,18.98
2023-06-15T07:12:34.648Z,20.35
2023-06-15T07:15:03.769Z,20.97
2023-06-15T07:17:35.628Z,20.53
2023-06-15T07:20:04.951Z,19.77
2023-06-15T07:22:33.984Z,19.04
2023-06-15T07:25:03.009Z,18.37
2023-06-15T07:27:32.600Z,17.69
2023-06-15T07:30:01.717Z,17.59
2023-06-15T07:32:35.766Z,18.02
2023-06-15T07:35:05.148Z,20.25
2023-06-15T07:37:34.758Z,22.97
2023-06-15T07:40:06.535Z,24.53
2023-06-15T07:42:35.455Z,25.44
2023-06-15T07:45:04.909Z,25.67
2023-06-15T07:47:34.744Z,25.31
2023-06-15T07:50:03.604Z,24.00
2023-06-15T07:52:34.426Z,22.51
2023-06-15T07:55:03.385Z,21.34
2023-06-15T07:57:32.615Z,20.52
2023-06-15T08:00:02.645Z,19.90
2023-06-15T08:02:39.012Z,19.45
2023-06-15T08:05:10.137Z,19.10
2023-06-15T08:07:40.499Z,19.04
2023-06-15T08:10:09.833Z,18.76
2023-06-15T08:12:38.682Z,18.02
2023-06-15T08:15:08.366Z,17.46
2023-06-15T08:17:38.531Z,17.16
2023-06-15T08:20:11.223Z,17.21
2023-06-15T08:22:40.126Z,17.42
2023-06-15T08:25:10.857Z,17.51
2023-06-15T08:27:40.072Z,17.64
2023-06-15T08:30:19.137Z,17.79
2023-06-15T08:32:48.506Z,18.29
2023-06-15T08:35:17.414Z,18.51
2023-06-15T08:37:46.421Z,18.36
2023-06-15T08:40:15.967Z,18.01
2023-06-15T08:42:45.329Z,17.97
2023-06-15T08:45:15.275Z,18.07
2023-06-15T08:47:44.901Z,17.59
2023-06-15T08:50:13.890Z,17.22
2023-06-15T08:52:47.236Z,16.96
2023-06-15T08:55:18.300Z,16.97
2023-06-15T08:57:48.172Z,17.27
2023-06-15T09:00:18.902Z,17.37
2023-06-15T09:02:49.255Z,17.46
2023-06-15T09:05:18.307Z,17.63
2023-06-15T09:07:47.175Z,17.65
2023-06-15T09:10:18.758Z,17.58
2023-06-15T09:12:49.493Z,17.43
2023-06-15T09:15:25.327Z,17.24
2023-06-15T09:17:58.888Z,17.12
2023-06-15T09:20:31.116Z,17.06
2023-06-15T09:23:07.444Z,17.10
2023-06-15T09:25:38.202Z,17.39
2023-06-15T09:28:08.919Z,17.92
2023-06-15T09:30:39.645Z,18.22
2023-06-15T09:33:21.184Z,17.93
2023-06-15T09:36:07.496Z,17.39
2023-06-15T09:38:46.237Z,16.95
2023-06-15T09:41:18.305Z,16.57
2023-06-15T09:43:47.829Z,16.27
2023-06-15T09:46:20.705Z,16.15
2023-06-15T09:48:49.779Z,16.15
2023-06-15T09:51:20.317Z,16.17
2023-06-15T09:53:50.573Z,16.25
2023-06-15T09:56:28.770Z,15.98
2023-06-15T09:59:00.511Z,15.58
2023-06-15T10:01:32.360Z,15.33
2023-06-15T10:04:04.130Z,15.31
2023-06-15T10:06:37.357Z,15.31
2023-06-15T10:09:10.042Z,15.30
2023-06-15T10:11:43.576Z,15.24
2023-06-15T10:14:28.178Z,15.29
2023-06-15T10:17:06.804Z,15.19
2023-06-15T10:19:44.688Z,15.21
2023-06-15T10:22:18.881Z,15.46
2023-06-15T10:24:48.418Z,15.48
2023-06-15T10:27:17.916Z,15.44
2023-06-15T10:29:59.376Z,15.20
2023-06-15T10:32:51.541Z,15.05
2023-06-15T10:35:46.264Z,14.95
2023-06-15T10:38:52.170Z,14.96
2023-06-15T10:41:21.799Z,14.91
2023-06-15T10:44:09.672Z,14.77
2023-06-15T10:46:38.683Z,14.53
2023-06-15T10:49:10.164Z,14.20
2023-06-15T10:51:44.132Z,13.86
2023-06-15T10:54:27.489Z,13.71
2023-06-15T10:56:59.105Z,13.61
2023-06-15T10:59:56.562Z,13.54
2023-06-15T11:02:30.852Z,13.61
2023-06-15T11:05:03.818Z,13.64
2023-06-15T11:07:39.657Z,13.66
2023-06-15T11:10:17.229Z,13.63
2023-06-15T11:12:49.676Z,13.64
2023-06-15T11:15:18.661Z,13.73
2023-06-15T11:18:01.689Z,13.80
2023-06-15T11:20:53.488Z,13.75
2023-06-15T11:23:25.720Z,13.68
2023-06-15T11:25:57.508Z,13.68
2023-06-15T11:28:36.639Z,13.64
2023-06-15T11:31:10.683Z,13.62
2023-06-15T11:33:42.103Z,13.56
2023-06-15T11:36:12.485Z,13.41
2023-06-15T11:38:41.433Z,13.31
2023-06-15T11:41:12.252Z,13.28
2023-06-15T11:43:52.180Z,13.27
2023-06-15T11:46:22.720Z,13.23
2023-06-15T11:48:57.377Z,13.24
2023-06-15T11:51:29.714Z,13.23
2023-06-15T11:53:58.752Z,13.19
2023-06-15T11:56:27.706Z,13.18
2023-06-15T11:58:56.849Z,13.04
2023-06-15T12:01:31.270Z,12.96
2023-06-15T12:04:05.584Z,12.91
2023-06-15T12:06:35.528Z,12.79
2023-06-15T12:09:05.950Z,12.66
2023-06-15T12:11:35.165Z,12.59
2023-06-15T12:14:18.312Z,12.58
2023-06-15T12:16:52.346Z,12.56
2023-06-15T12:19:22.408Z,12.59
2023-06-15T12:21:51.364Z,12.62
2023-06-15T12:24:24.239Z,12.72
2023-06-15T12:26:55.193Z,12.76
2023-06-15T12:29:27.548Z,12.76
2023-06-15T12:31:57.537Z,12.70
2023-06-15T12:34:28.072Z,12.65
2023-06-15T12:36:57.528Z,12.53
2023-06-15T12:39:30.145Z,12.47
2023-06-15T12:42:03.732Z,12.41
2023-06-15T12:44:36.257Z,12.40
2023-06-15T12:47:05.619Z,12.31
2023-06-15T12:49:34.830Z,12.27
2023-06-15T12:52:03.860Z,12.24
2023-06-15T12:54:32.715Z,12.16
2023-06-15T12:57:01.777Z,12.06
2023-06-15T12:59:30.923Z,12.01
2023-06-15T13:02:00.657Z,11.89
2023-06-15T13:04:30.956Z,11.81
2023-06-15T13:07:00.417Z,11.73
2023-06-15T13:09:29.404Z,11.66
2023-06-15T13:11:58.508Z,11.55
2023-06-15T13:14:27.443Z,11.43
2023-06-15T13:16:56.340Z,11.28
2023-06-15T13:19:25.465Z,11.11
2023-06-15T13:21:54.673Z,10.99
2023-06-15T13:24:23.733Z,10.89
2023-06-15T13:26:52.747Z,10.80
2023-06-15T13:29:21.744Z,10.67
2023-06-15T13:31:50.679Z,10.55
2023-06-15T13:34:19.556Z,10.48
2023-06-15T13:36:48.701Z,10.40
2023-06-15T13:39:17.698Z,10.32
2023-06-15T13:41:46.901Z,10.27
2023-06-15T13:44:16.975Z,10.18
2023-06-15T13:46:45.949Z,10.08
2023-06-15T13:49:15.128Z,10.00
2023-06-15T13:51:44.153Z,9.88
2023-06-15T13:54:13.092Z,9.86
2023-06-15T13:56:42.007Z,9.77
2023-06-15T13:59:11.049Z,9.76
2023-06-15T14:01:43.265Z,9.75
2023-06-15T14:04:12.697Z,9.80
2023-06-15T14:06:42.295Z,9.79
2023-06-15T14:09:11.360Z,9.75
2023-06-15T14:11:42.465Z,9.70
2023-06-15T14:14:11.512Z,9.64
2023-06-15T14:16:40.752Z,9.60
2023-06-15T14:19:10.224Z,9.57
2023-06-15T14:21:39.149Z,9.51
2023-06-15T14:24:08.233Z,9.48
2023-06-15T14:26:37.241Z,9.41
2023-06-15T14:29:06.401Z,9.30
2023-06-15T14:31:36.602Z,9.22
2023-06-15T14:34:07.406Z,9.16
2023-06-15T14:36:36.259Z,9.07
2023-06-15T14:39:05.297Z,8.98
2023-06-15T14:41:34.321Z,8.89
2023-06-15T14:44:03.870Z,8.81
2023-06-15T14:46:35.395Z,8.72
2023-06-15T14:49:08.338Z,8.70
2023-06-15T14:51:38.465Z,8.68
2023-06-15T14:54:08.880Z,8.68
2023-06-15T14:56:40.472Z,8.69
2023-06-15T14:59:09.596Z,8.71
2023-06-15T15:01:39.916Z,8.70
2023-06-15T15:04:09.052Z,8.68
2023-06-15T15:06:37.985Z,8.64
2023-06-15T15:09:07.004Z,8.66
2023-06-15T15:11:36.066Z,8.62
2023-06-15T15:14:05.442Z,8.56
2023-06-15T15:16:34.624Z,8.55
2023-06-15T15:19:04.420Z,8.53
2023-06-15T15:21:33.701Z,8.51
2023-06-15T15:24:02.775Z,8.48
2023-06-15T15:26:31.704Z,8.43
2023-06-15T15:29:00.638Z,8.43
2023-06-15T15:31:30.042Z,8.42
2023-06-15T15:33:58.988Z,8.40
2023-06-15T15:36:28.439Z,8.37
2023-06-15T15:38:57.893Z,8.38
2023-06-15T15:41:26.808Z,8.36
2023-06-15T15:43:55.907Z,8.33
2023-06-15T15:46:24.901Z,8.34
2023-06-15T15:48:53.833Z,8.36
2023-06-15T15:51:22.833Z,8.38
2023-06-15T15:53:51.874Z,8.39
2023-06-15T15:56:20.987Z,8.36
2023-06-15T15:58:49.973Z,8.39
2023-06-15T16:01:20.286Z,8.38
2023-06-15T16:03:49.467Z,8.35
2023-06-15T16:06:18.615Z,8.36
2023-06-15T16:08:47.500Z,8.31
2023-06-15T16:11:16.569Z,8.26
2023-06-15T16:13:46.861Z,8.25
2023-06-15T16:16:28.198Z,8.22
2023-06-15T16:18:58.028Z,8.18
2023-06-15T16:21:27.139Z,8.11
2023-06-15T16:23:56.158Z,8.02
2023-06-15T16:26:25.105Z,7.97
2023-06-15T16:28:53.989Z,7.91
2023-06-15T16:31:22.977Z,7.84
2023-06-15T16:33:51.875Z,7.86
2023-06-15T16:36:20.914Z,7.92
2023-06-15T16:38:49.794Z,7.91
2023-06-15T16:41:18.740Z,7.92
2023-06-15T16:43:47.621Z,7.96
2023-06-15T16:46:16.667Z,7.92
2023-06-15T16:48:45.621Z,7.88
2023-06-15T16:51:14.407Z,7.85
2023-06-15T16:53:43.351Z,7.87
2023-06-15T16:56:12.370Z,7.93
2023-06-15T16:58:41.279Z,7.88
2023-06-15T17:01:10.762Z,7.91
2023-06-15T17:03:40.398Z,7.93
2023-06-15T17:06:09.654Z,7.95
2023-06-15T17:08:38.549Z,8.01
2023-06-15T17:11:07.542Z,8.02
2023-06-15T17:13:37.836Z,7.99
2023-06-15T17:16:06.855Z,7.99
2023-06-15T17:18:35.796Z,7.93
2023-06-15T17:21:04.788Z,7.86
2023-06-15T17:23:33.710Z,7.85
2023-06-15T17:26:02.694Z,7.79
2023-06-15T17:28:31.592Z,7.72
2023-06-15T17:31:00.536Z,7.72
2023-06-15T17:33:29.401Z,7.81
2023-06-15T17:35:58.288Z,7.81
2023-06-15T17:38:27.322Z,7.74
2023-06-15T17:40:56.232Z,7.68
2023-06-15T17:43:25.279Z,7.61
2023-06-15T17:45:54.463Z,7.57
2023-06-15T17:48:24.511Z,7.48
2023-06-15T17:50:53.344Z,7.49
2023-06-15T17:53:22.348Z,7.47
2023-06-15T17:55:52.629Z,7.52
2023-06-15T17:58:22.018Z,7.51
2023-06-15T18:00:53.244Z,7.44
2023-06-15T18:03:31.622Z,7.38
2023-06-15T18:06:00.599Z,7.32
2023-06-15T18:08:29.540Z,7.27
2023-06-15T18:10:58.815Z,7.28
2023-06-15T18:13:27.932Z,7.31
2023-06-15T18:15:57.051Z,7.30
2023-06-15T18:18:26.419Z,7.34
2023-06-15T18:20:55.412Z,7.31
2023-06-15T18:23:24.905Z,7.34
2023-06-15T18:25:56.963Z,7.31
2023-06-15T18:28:26.149Z,7.31
2023-06-15T18:30:55.080Z,7.33
2023-06-15T18:33:24.955Z,7.28
2023-06-15T18:35:54.180Z,7.25
2023-06-15T18:38:23.675Z,7.24
2023-06-15T18:40:52.969Z,7.26
2023-06-15T18:43:21.809Z,7.26
2023-06-15T18:45:50.804Z,7.25
2023-06-15T18:48:19.698Z,7.31
2023-06-15T18:50:48.561Z,7.36
2023-06-15T18:53:17.616Z,7.35
2023-06-15T18:55:46.584Z,7.41
2023-06-15T18:58:15.444Z,7.44
2023-06-15T19:00:45.583Z,7.48
2023-06-15T19:03:14.910Z,7.50
2023-06-15T19:05:43.839Z,7.45
2023-06-15T19:08:13.228Z,7.44
2023-06-15T19:10:42.076Z,7.39
2023-06-15T19:13:10.979Z,7.42
2023-06-15T19:15:39.964Z,7.43
2023-06-15T19:18:08.886Z,7.39
2023-06-15T19:20:37.960Z,7.39
2023-06-15T19:23:07.943Z,7.37
2023-06-15T19:25:36.918Z,7.32
2023-06-15T19:28:05.734Z,7.34
2023-06-15T19:30:34.645Z,7.30
2023-06-15T19:33:03.607Z,7.25
2023-06-15T19:35:35.998Z,7.20
2023-06-15T19:38:04.922Z,7.23
2023-06-15T19:40:33.834Z,7.21
2023-06-15T19:43:02.715Z,7.17
2023-06-15T19:45:31.647Z,7.15
2023-06-15T19:48:00.661Z,7.14
2023-06-15T19:50:29.583Z,7.11
2023-06-15T19:52:58.484Z,7.15
2023-06-15T19:55:27.393Z,7.18
2023-06-15T19:57:56.345Z,7.22
2023-06-15T20:00:26.459Z,7.23
2023-06-15T20:02:56.427Z,7.28
2023-06-15T20:05:25.423Z,7.30
2023-06-15T20:07:54.369Z,7.30
2023-06-15T20:10:23.279Z,7.27
2023-06-15T20:12:52.107Z,7.25
2023-06-15T20:15:21.879Z,7.29
2023-06-15T20:17:52.997Z,7.31
2023-06-15T20:20:22.165Z,7.26
2023-06-15T20:22:53.378Z,7.21
2023-06-15T20:25:22.365Z,7.19
2023-06-15T20:27:51.478Z,7.17
2023-06-15T20:30:20.770Z,7.09
2023-06-15T20:32:49.997Z,7.05
2023-06-15T20:35:18.982Z,7.06
2023-06-15T20:37:47.950Z,7.02
2023-06-15T20:40:17.200Z,7.02
2023-06-15T20:42:47.995Z,6.96
2023-06-15T20:45:17.092Z,6.91
2023-06-15T20:47:46.744Z,6.96
2023-06-15T20:50:15.949Z,7.02
2023-06-15T20:52:44.951Z,7.05
2023-06-15T20:55:14.464Z,7.09
2023-06-15T20:57:43.451Z,7.12
2023-06-15T21:00:13.651Z,7.10
2023-06-15T21:02:42.861Z,7.19
2023-06-15T21:05:12.205Z,7.21
2023-06-15T21:07:41.219Z,7.22
2023-06-15T21:10:10.878Z,7.29
2023-06-15T21:12:40.300Z,7.36
2023-06-15T21:15:09.500Z,7.45
2023-06-15T21:17:40.196Z,7.53
2023-06-15T21:20:10.398Z,7.54
2023-06-15T21:22:39.772Z,7.61
2023-06-15T21:25:09.189Z,7.66
2023-06-15T21:27:38.047Z,7.75
2023-06-15T21:30:08.283Z,7.77
2023-06-15T21:32:37.299Z,7.81
2023-06-15T21:35:07.401Z,7.85
2023-06-15T21:37:36.352Z,7.89
2023-06-15T21:40:05.642Z,7.94
2023-06-15T21:42:34.629Z,8.02
2023-06-15T21:45:04.044Z,8.07
2023-06-15T21:47:34.100Z,8.13
2023-06-15T21:50:03.075Z,8.18
2023-06-15T21:52:34.460Z,8.24
2023-06-15T21:55:03.942Z,8.26
2023-06-15T21:57:33.066Z,8.18
2023-06-15T22:00:01.974Z,8.31
2023-06-15T22:02:35.472Z,8.37
2023-06-15T22:05:04.727Z,8.40
2023-06-15T22:07:33.830Z,8.44
2023-06-15T22:10:03.959Z,8.45
2023-06-15T22:12:34.728Z,8.46
2023-06-15T22:15:08.288Z,8.50
2023-06-15T22:17:40.407Z,8.51
2023-06-15T22:20:11.774Z,8.56
2023-06-15T22:22:41.031Z,8.59
2023-06-15T22:25:11.334Z,8.58
2023-06-15T22:27:40.399Z,8.65
2023-06-15T22:30:09.625Z,8.72
2023-06-15T22:32:38.565Z,8.75
2023-06-15T22:35:10.013Z,8.76
2023-06-15T22:37:38.964Z,8.83
2023-06-15T22:40:08.801Z,8.90
2023-06-15T22:42:37.686Z,8.96
2023-06-15T22:45:07.290Z,8.97
2023-06-15T22:47:42.438Z,8.95
2023-06-15T22:50:14.756Z,9.00
2023-06-15T22:52:44.060Z,9.03
2023-06-15T22:55:13.038Z,9.09
2023-06-15T22:57:42.090Z,9.11
2023-06-15T23:00:12.734Z,9.16
2023-06-15T23:02:41.965Z,9.22
2023-06-15T23:05:11.148Z,9.28
2023-06-15T23:07:40.283Z,9.30
2023-06-15T23:10:09.887Z,9.39
2023-06-15T23:12:40.429Z,9.42
2023-06-15T23:15:10.152Z,9.47
2023-06-15T23:17:39.641Z,9.46
2023-06-15T23:20:09.116Z,9.47
2023-06-15T23:22:38.066Z,9.51
2023-06-15T23:25:07.861Z,9.52
2023-06-15T23:27:36.710Z,9.53
2023-06-15T23:30:07.838Z,9.57
2023-06-15T23:32:36.931Z,9.61
2023-06-15T23:35:06.792Z,9.67
2023-06-15T23:37:35.779Z,9.70
2023-06-15T23:40:05.182Z,9.73
2023-06-15T23:42:37.266Z,9.80
2023-06-15T23:45:06.677Z,9.81
2023-06-15T23:47:35.539Z,9.88
2023-06-15T23:50:04.928Z,9.90
2023-06-15T23:52:34.002Z,10.01
2023-06-15T23:55:03.233Z,9.99
2023-06-15T23:57:32.870Z,10.05
